createdAt,value
2023-04-20T00:00:11.740Z,71.83
2023-04-20T00:02:42.081Z,72.30
2023-04-20T00:05:10.589Z,72.51
2023-04-20T00:07:38.790Z,72.51
2023-04-20T00:10:07.197Z,72.69
2023-04-20T00:12:34.220Z,73.74
2023-04-20T00:15:01.348Z,73.53
2023-04-20T00:17:28.427Z,73.36
2023-04-20T00:19:55.558Z,73.11
2023-04-20T00:22:22.589Z,72.79
2023-04-20T00:24:49.540Z,73.18
2023-04-20T00:27:16.687Z,73.90
2023-04-20T00:29:43.792Z,73.77
2023-04-20T00:32:10.911Z,73.65
2023-04-20T00:34:37.890Z,73.64
2023-04-20T00:37:04.959Z,73.72
2023-04-20T00:39:32.065Z,73.69
2023-04-20T00:42:09.482Z,73.75
2023-04-20T00:44:44.922Z,73.74
2023-04-20T00:47:11.847Z,73.97
2023-04-20T00:49:39.249Z,74.59
2023-04-20T00:52:06.679Z,74.74
2023-04-20T00:54:33.769Z,75.13
2023-04-20T00:57:00.949Z,76.25
2023-04-20T00:59:28.356Z,76.11
2023-04-20T01:01:55.750Z,76.13
2023-04-20T01:04:23.004Z,76.18
2023-04-20T01:06:50.810Z,75.51
2023-04-20T01:09:17.914Z,74.97
2023-04-20T01:11:45.130Z,75.28
2023-04-20T01:14:16.465Z,75.37
2023-04-20T01:16:45.097Z,74.89
2023-04-20T01:19:12.773Z,73.93
2023-04-20T01:21:39.792Z,74.05
2023-04-20T01:24:07.285Z,73.91
2023-04-20T01:26:34.225Z,74.18
2023-04-20T01:29:01.507Z,73.96
2023-04-20T01:31:28.882Z,74.40
2023-04-20T01:33:58.233Z,72.85
2023-04-20T01:36:25.409Z,73.53
2023-04-20T01:38:52.599Z,74.38
2023-04-20T01:41:19.639Z,74.83
2023-04-20T01:43:46.741Z,75.87
2023-04-20T01:46:13.869Z,76.19
2023-04-20T01:48:41.018Z,76.10
2023-04-20T01:51:09.657Z,76.31
2023-04-20T01:53:36.725Z,75.58
2023-04-20T01:56:03.796Z,76.10
2023-04-20T01:58:31.493Z,76.26
2023-04-20T02:00:58.657Z,76.71
2023-04-20T02:03:28.100Z,76.45
2023-04-20T02:05:55.492Z,77.19
2023-04-20T02:08:22.740Z,76.89
2023-04-20T02:10:49.770Z,75.60
2023-04-20T02:13:16.750Z,75.79
2023-04-20T02:15:45.425Z,76.51
2023-04-20T02:18:12.877Z,76.50
2023-04-20T02:20:39.822Z,75.97
2023-04-20T02:23:06.817Z,75.48
2023-04-20T02:25:35.719Z,75.33
2023-04-20T02:28:04.445Z,74.56
2023-04-20T02:30:31.655Z,74.38
2023-04-20T02:32:59.139Z,75.88
2023-04-20T02:35:26.372Z,75.46
2023-04-20T02:37:53.340Z,75.42
2023-04-20T02:40:20.341Z,75.41
2023-04-20T02:42:47.387Z,76.18
2023-04-20T02:45:14.429Z,76.44
2023-04-20T02:47:44.288Z,76.23
2023-04-20T02:50:12.979Z,75.93
2023-04-20T02:52:57.646Z,76.10
2023-04-20T02:55:24.941Z,75.89
2023-04-20T02:57:54.768Z,76.52
2023-04-20T03:00:26.911Z,76.08
2023-04-20T03:03:03.834Z,75.18
2023-04-20T03:05:31.648Z,75.18
2023-04-20T03:07:58.781Z,75.21
2023-04-20T03:10:26.909Z,74.73
2023-04-20T03:13:01.835Z,74.78
2023-04-20T03:15:32.563Z,74.98
2023-04-20T03:18:08.611Z,75.34
2023-04-20T03:20:36.049Z,75.33
2023-04-20T03:23:03.099Z,75.91
2023-04-20T03:25:30.663Z,76.31
2023-04-20T03:27:59.757Z,76.08
2023-04-20T03:30:27.297Z,76.54
2023-04-20T03:33:03.340Z,76.32
2023-04-20T03:35:30.461Z,76.98
2023-04-20T03:37:57.500Z,77.39
2023-04-20T03:40:24.742Z,78.02
2023-04-20T03:42:51.656Z,77.94
2023-04-20T03:45:18.779Z,77.41
2023-04-20T03:47:45.928Z,76.93
2023-04-20T03:50:12.929Z,77.88
2023-04-20T03:52:41.139Z,77.29
2023-04-20T03:55:10.328Z,77.29
2023-04-20T03:57:40.912Z,77.02
2023-04-20T04:00:10.937Z,77.69
2023-04-20T04:02:47.072Z,77.94
2023-04-20T04:05:19.388Z,78.39
2023-04-20T04:07:49.382Z,79.09
2023-04-20T04:10:19.041Z,78.94
2023-04-20T04:12:46.346Z,79.51
2023-04-20T04:15:14.201Z,78.83
2023-04-20T04:17:49.575Z,78.69
2023-04-20T04:20:16.831Z,78.58
2023-04-20T04:22:44.087Z,79.32
2023-04-20T04:25:40.727Z,78.97
2023-04-20T04:28:09.703Z,79.50
2023-04-20T04:30:42.342Z,78.77
2023-04-20T04:33:10.407Z,78.59
2023-04-20T04:35:41.665Z,81.02
2023-04-20T04:38:09.691Z,80.30
2023-04-20T04:40:38.273Z,80.73
2023-04-20T04:43:07.808Z,81.21
2023-04-20T04:45:41.113Z,81.34
2023-04-20T04:48:12.566Z,81.48
2023-04-20T04:50:40.083Z,81.47
2023-04-20T04:53:07.955Z,81.28
2023-04-20T04:55:34.883Z,80.99
2023-04-20T04:58:01.902Z,80.14
2023-04-20T05:00:29.503Z,80.10
2023-04-20T05:02:56.981Z,79.87
2023-04-20T05:05:25.577Z,79.38
2023-04-20T05:07:52.564Z,79.46
2023-04-20T05:10:19.567Z,80.94
2023-04-20T05:12:46.774Z,81.46
2023-04-20T05:15:13.733Z,81.44
2023-04-20T05:17:40.919Z,82.04
2023-04-20T05:20:10.735Z,82.27
2023-04-20T05:22:38.372Z,81.94
2023-04-20T05:25:06.669Z,81.94
2023-04-20T05:27:34.204Z,82.23
2023-04-20T05:30:13.157Z,82.27
2023-04-20T05:32:50.698Z,82.40
2023-04-20T05:35:18.999Z,82.28
2023-04-20T05:37:47.781Z,82.48
2023-04-20T05:40:15.436Z,82.12
2023-04-20T05:42:42.423Z,82.75
2023-04-20T05:45:10.094Z,83.27
2023-04-20T05:47:37.243Z,83.67
2023-04-20T05:50:05.188Z,83.37
2023-04-20T05:52:32.252Z,83.37
2023-04-20T05:54:59.729Z,83.08
2023-04-20T05:57:26.695Z,81.37
2023-04-20T05:59:56.041Z,81.75
2023-04-20T06:02:23.330Z,82.16
2023-04-20T06:04:50.628Z,81.66
2023-04-20T06:07:17.892Z,81.55
2023-04-20T06:09:44.882Z,80.34
2023-04-20T06:12:12.072Z,80.59
2023-04-20T06:14:39.065Z,79.53
2023-04-20T06:17:06.253Z,77.96
2023-04-20T06:19:33.267Z,78.93
2023-04-20T06:22:01.282Z,79.24
2023-04-20T06:24:28.462Z,79.85
2023-04-20T06:26:55.500Z,80.93
2023-04-20T06:29:22.555Z,81.94
2023-04-20T06:31:49.532Z,82.82
2023-04-20T06:34:16.826Z,84.23
2023-04-20T06:36:43.979Z,85.42
2023-04-20T06:39:11.770Z,82.88
2023-04-20T06:41:39.370Z,84.95
2023-04-20T06:44:07.211Z,85.64
2023-04-20T06:46:34.455Z,86.24
2023-04-20T06:49:02.184Z,86.86
2023-04-20T06:51:29.945Z,89.16
2023-04-20T06:53:56.960Z,89.55
2023-04-20T06:56:24.346Z,92.33
2023-04-20T06:58:51.408Z,93.23
2023-04-20T07:01:18.491Z,93.29
2023-04-20T07:03:47.308Z,93.16
2023-04-20T07:06:15.806Z,91.94
2023-04-20T07:08:43.183Z,88.91
2023-04-20T07:11:10.197Z,90.59
2023-04-20T07:13:37.204Z,89.39
2023-04-20T07:16:04.672Z,87.19
2023-04-20T07:18:33.971Z,86.78
2023-04-20T07:21:02.326Z,84.06
2023-04-20T07:23:29.261Z,83.05
2023-04-20T07:25:56.293Z,83.28
2023-04-20T07:28:23.353Z,81.98
2023-04-20T07:30:50.428Z,80.72
2023-04-20T07:33:17.463Z,77.59
2023-04-20T07:35:44.604Z,76.37
2023-04-20T07:38:17.353Z,71.75
2023-04-20T07:40:44.342Z,68.66
2023-04-20T07:43:11.321Z,72.55
2023-04-20T07:45:41.627Z,73.28
2023-04-20T07:48:09.817Z,71.90
2023-04-20T07:50:36.918Z,70.94
2023-04-20T07:53:03.829Z,71.37
2023-04-20T07:55:30.869Z,71.56
2023-04-20T07:57:58.011Z,74.12
2023-04-20T08:00:25.613Z,74.83
2023-04-20T08:02:53.031Z,72.23
2023-04-20T08:05:20.311Z,74.38
2023-04-20T08:07:47.264Z,75.86
2023-04-20T08:10:14.392Z,76.39
2023-04-20T08:12:41.508Z,74.55
2023-04-20T08:15:09.316Z,77.08
2023-04-20T08:17:36.263Z,73.20
2023-04-20T08:20:05.979Z,72.34
2023-04-20T08:22:33.756Z,72.27
2023-04-20T08:25:00.799Z,69.64
2023-04-20T08:27:29.838Z,68.21
2023-04-20T08:29:57.358Z,69.78
2023-04-20T08:32:27.022Z,69.56
2023-04-20T08:34:54.320Z,68.26
2023-04-20T08:37:21.476Z,68.82
2023-04-20T08:39:48.486Z,69.43
2023-04-20T08:42:17.068Z,68.19
2023-04-20T08:44:43.979Z,70.94
2023-04-20T08:47:12.125Z,71.09
2023-04-20T08:49:40.228Z,72.21
2023-04-20T08:52:10.861Z,69.21
2023-04-20T08:54:46.001Z,71.57
2023-04-20T08:57:20.213Z,71.12
2023-04-20T08:59:47.158Z,69.21
2023-04-20T09:02:15.147Z,65.96
2023-04-20T09:04:42.514Z,70.15
2023-04-20T09:07:20.355Z,70.21
2023-04-20T09:09:57.577Z,71.13
2023-04-20T09:12:25.037Z,64.44
2023-04-20T09:14:52.698Z,68.87
2023-04-20T09:17:39.521Z,67.17
2023-04-20T09:20:07.707Z,66.33
2023-04-20T09:22:36.568Z,64.87
2023-04-20T09:25:17.203Z,64.26
2023-04-20T09:27:44.232Z,64.96
2023-04-20T09:30:11.972Z,63.00
2023-04-20T09:32:38.945Z,62.29
2023-04-20T09:35:07.919Z,62.01
2023-04-20T09:37:34.867Z,58.66
2023-04-20T09:40:02.626Z,60.13
2023-04-20T09:42:32.010Z,60.19
2023-04-20T09:45:00.194Z,58.92
2023-04-20T09:47:29.882Z,61.07
2023-04-20T09:50:00.045Z,60.05
2023-04-20T09:52:27.759Z,60.93
2023-04-20T09:54:55.376Z,62.63
2023-04-20T09:57:23.569Z,61.84
2023-04-20T09:59:53.176Z,59.98
2023-04-20T10:02:20.853Z,60.35
2023-04-20T10:05:01.999Z,61.19
2023-04-20T10:07:33.320Z,62.93
2023-04-20T10:10:07.288Z,60.92
2023-04-20T10:12:37.143Z,63.95
2023-04-20T10:15:04.545Z,63.02
2023-04-20T10:17:32.997Z,61.77
2023-04-20T10:20:00.393Z,58.92
2023-04-20T10:22:33.897Z,62.80
2023-04-20T10:25:02.514Z,64.40
2023-04-20T10:27:32.356Z,63.34
2023-04-20T10:30:10.645Z,62.39
2023-04-20T10:32:37.929Z,64.84
2023-04-20T10:35:11.042Z,61.76
2023-04-20T10:37:48.868Z,61.48
2023-04-20T10:40:16.213Z,59.32
2023-04-20T10:42:46.758Z,60.13
2023-04-20T10:45:14.275Z,59.84
2023-04-20T10:47:41.961Z,65.25
2023-04-20T10:50:14.365Z,61.81
2023-04-20T10:52:43.582Z,66.34
2023-04-20T10:55:25.179Z,67.26
2023-04-20T10:57:53.016Z,66.40
2023-04-20T11:00:29.771Z,64.85
2023-04-20T11:02:57.626Z,68.44
2023-04-20T11:05:27.578Z,68.40
2023-04-20T11:07:57.291Z,64.43
2023-04-20T11:10:37.693Z,66.70
2023-04-20T11:13:04.933Z,62.12
2023-04-20T11:15:33.044Z,65.27
2023-04-20T11:18:12.012Z,67.42
2023-04-20T11:20:53.847Z,65.82
2023-04-20T11:23:22.374Z,67.52
2023-04-20T11:25:57.223Z,67.04
2023-04-20T11:28:24.377Z,64.10
2023-04-20T11:30:51.426Z,66.06
2023-04-20T11:33:32.223Z,65.60
2023-04-20T11:36:01.220Z,66.73
2023-04-20T11:38:32.955Z,60.28
2023-04-20T11:41:04.851Z,60.27
2023-04-20T11:43:32.764Z,64.83
2023-04-20T11:46:05.346Z,63.46
2023-04-20T11:48:32.818Z,66.18
2023-04-20T11:51:00.011Z,61.94
2023-04-20T11:53:27.024Z,66.41
2023-04-20T11:55:54.176Z,62.00
2023-04-20T11:58:21.160Z,60.06
2023-04-20T12:00:48.204Z,66.46
2023-04-20T12:03:15.433Z,68.56
2023-04-20T12:05:43.340Z,68.62
2023-04-20T12:08:10.511Z,63.40
2023-04-20T12:10:37.609Z,65.51
2023-04-20T12:13:04.680Z,65.06
2023-04-20T12:15:31.931Z,62.14
2023-04-20T12:17:59.173Z,67.34
2023-04-20T12:20:26.423Z,64.56
2023-04-20T12:22:53.553Z,63.69
2023-04-20T12:25:20.802Z,67.29
2023-04-20T12:27:49.435Z,67.05
2023-04-20T12:30:17.154Z,66.49
2023-04-20T12:32:44.233Z,63.79
2023-04-20T12:35:11.414Z,63.12
2023-04-20T12:37:38.616Z,63.90
2023-04-20T12:40:07.353Z,62.70
2023-04-20T12:42:34.443Z,57.95
2023-04-20T12:45:01.612Z,56.42
2023-04-20T12:47:28.658Z,57.59
2023-04-20T12:49:56.403Z,57.28
2023-04-20T12:52:23.502Z,57.97
2023-04-20T12:54:50.652Z,62.71
2023-04-20T12:57:17.762Z,58.82
2023-04-20T12:59:44.709Z,62.16
2023-04-20T13:02:12.233Z,64.40
2023-04-20T13:04:39.362Z,63.00
2023-04-20T13:07:07.298Z,60.57
2023-04-20T13:09:34.337Z,58.07
2023-04-20T13:12:01.501Z,60.55
2023-04-20T13:14:28.447Z,61.30
2023-04-20T13:16:57.288Z,59.13
2023-04-20T13:19:24.406Z,61.77
2023-04-20T13:21:51.362Z,65.61
2023-04-20T13:24:18.619Z,65.17
2023-04-20T13:26:45.944Z,59.49
2023-04-20T13:29:13.137Z,59.12
2023-04-20T13:31:40.902Z,63.25
2023-04-20T13:34:08.174Z,61.68
2023-04-20T13:36:35.181Z,60.77
2023-04-20T13:39:02.269Z,60.94
2023-04-20T13:41:29.418Z,58.90
2023-04-20T13:43:58.324Z,60.46
2023-04-20T13:46:25.497Z,59.60
2023-04-20T13:48:52.637Z,61.47
2023-04-20T13:51:20.181Z,60.95
2023-04-20T13:53:49.986Z,62.54
2023-04-20T13:56:17.383Z,61.38
2023-04-20T13:58:44.815Z,62.15
2023-04-20T14:01:13.321Z,62.49
2023-04-20T14:03:41.934Z,64.74
2023-04-20T14:06:09.370Z,64.17
2023-04-20T14:08:36.586Z,64.18
2023-04-20T14:11:03.665Z,60.18
2023-04-20T14:13:30.681Z,58.88
2023-04-20T14:15:58.949Z,59.04
2023-04-20T14:18:26.033Z,60.32
2023-04-20T14:20:53.195Z,60.65
2023-04-20T14:23:20.264Z,59.69
2023-04-20T14:25:47.372Z,58.88
2023-04-20T14:28:16.973Z,62.03
2023-04-20T14:30:45.849Z,58.20
2023-04-20T14:33:13.053Z,59.70
2023-04-20T14:35:40.611Z,58.65
2023-04-20T14:38:10.964Z,58.82
2023-04-20T14:40:38.202Z,59.69
2023-04-20T14:43:05.238Z,60.13
2023-04-20T14:45:32.319Z,61.69
2023-04-20T14:47:59.410Z,62.53
2023-04-20T14:50:27.708Z,60.61
2023-04-20T14:52:55.865Z,61.77
2023-04-20T14:55:26.016Z,58.14
2023-04-20T14:57:56.376Z,60.76
2023-04-20T15:00:25.351Z,59.89
2023-04-20T15:02:53.469Z,60.94
2023-04-20T15:05:20.842Z,60.72
2023-04-20T15:07:50.912Z,60.21
2023-04-20T15:10:19.949Z,61.38
2023-04-20T15:12:48.068Z,63.61
2023-04-20T15:15:15.657Z,63.09
2023-04-20T15:17:42.865Z,61.60
2023-04-20T15:20:10.398Z,61.10
2023-04-20T15:22:37.866Z,60.42
2023-04-20T15:25:05.798Z,59.67
2023-04-20T15:27:32.870Z,59.86
2023-04-20T15:30:00.022Z,59.72
2023-04-20T15:32:29.050Z,58.54
2023-04-20T15:34:57.019Z,59.83
2023-04-20T15:37:24.151Z,59.53
2023-04-20T15:39:52.741Z,60.75
2023-04-20T15:42:19.911Z,60.90
2023-04-20T15:44:47.148Z,62.57
2023-04-20T15:47:14.446Z,62.26
2023-04-20T15:49:41.503Z,61.58
2023-04-20T15:52:11.394Z,62.08
2023-04-20T15:54:38.870Z,62.46
2023-04-20T15:57:06.088Z,63.05
2023-04-20T15:59:33.305Z,63.69
2023-04-20T16:02:00.549Z,61.45
2023-04-20T16:04:27.686Z,62.88
2023-04-20T16:06:55.565Z,61.35
2023-04-20T16:09:23.737Z,60.69
2023-04-20T16:11:51.207Z,60.41
2023-04-20T16:14:18.640Z,60.97
2023-04-20T16:16:45.951Z,60.22
2023-04-20T16:19:16.018Z,58.15
2023-04-20T16:21:43.117Z,59.10
2023-04-20T16:24:10.127Z,59.74
2023-04-20T16:26:37.714Z,60.24
2023-04-20T16:29:06.053Z,59.08
2023-04-20T16:31:33.325Z,59.43
2023-04-20T16:34:01.159Z,59.79
2023-04-20T16:36:31.525Z,59.57
2023-04-20T16:38:59.200Z,60.11
2023-04-20T16:41:27.421Z,59.25
2023-04-20T16:43:55.490Z,60.00
2023-04-20T16:46:23.010Z,60.36
2023-04-20T16:48:51.185Z,60.76
2023-04-20T16:51:18.346Z,60.29
2023-04-20T16:53:45.654Z,60.83
2023-04-20T16:56:12.997Z,61.54
2023-04-20T16:58:40.282Z,61.43
2023-04-20T17:01:11.285Z,61.77
2023-04-20T17:03:38.559Z,62.33
2023-04-20T17:06:08.209Z,62.02
2023-04-20T17:08:37.577Z,63.45
2023-04-20T17:11:05.231Z,63.17
2023-04-20T17:13:33.824Z,63.05
2023-04-20T17:16:01.012Z,64.20
2023-04-20T17:18:28.212Z,65.21
2023-04-20T17:20:57.460Z,64.49
2023-04-20T17:23:26.534Z,64.17
2023-04-20T17:25:54.978Z,64.56
2023-04-20T17:28:22.097Z,64.85
2023-04-20T17:30:49.210Z,64.74
2023-04-20T17:33:16.965Z,63.39
2023-04-20T17:35:45.904Z,63.57
2023-04-20T17:38:12.920Z,63.82
2023-04-20T17:40:40.103Z,64.15
2023-04-20T17:43:07.144Z,64.19
2023-04-20T17:45:34.233Z,65.13
2023-04-20T17:48:01.346Z,65.30
2023-04-20T17:50:28.353Z,65.33
2023-04-20T17:52:55.413Z,64.81
2023-04-20T17:55:22.656Z,64.53
2023-04-20T17:57:49.666Z,64.15
2023-04-20T18:00:16.950Z,63.73
2023-04-20T18:02:44.194Z,64.61
2023-04-20T18:05:11.626Z,64.44
2023-04-20T18:07:38.605Z,64.37
2023-04-20T18:10:06.158Z,64.31
2023-04-20T18:12:34.138Z,64.39
2023-04-20T18:15:01.553Z,64.71
2023-04-20T18:17:28.598Z,64.08
2023-04-20T18:19:55.699Z,64.22
2023-04-20T18:22:24.338Z,63.00
2023-04-20T18:24:52.056Z,62.52
2023-04-20T18:27:19.194Z,63.13
2023-04-20T18:29:46.522Z,63.33
2023-04-20T18:32:16.467Z,62.84
2023-04-20T18:34:44.170Z,64.59
2023-04-20T18:37:12.637Z,64.67
2023-04-20T18:39:39.999Z,65.61
2023-04-20T18:42:07.081Z,65.92
2023-04-20T18:44:34.327Z,64.25
2023-04-20T18:47:01.746Z,65.08
2023-04-20T18:49:30.353Z,65.68
2023-04-20T18:51:57.597Z,64.94
2023-04-20T18:54:24.683Z,65.23
2023-04-20T18:56:51.739Z,65.83
2023-04-20T18:59:18.864Z,65.34
2023-04-20T19:01:46.083Z,66.31
2023-04-20T19:04:13.267Z,66.98
2023-04-20T19:06:40.417Z,67.14
2023-04-20T19:09:08.393Z,66.08
2023-04-20T19:11:35.637Z,65.77
2023-04-20T19:14:02.828Z,65.82
2023-04-20T19:16:31.569Z,66.11
2023-04-20T19:18:59.156Z,66.54
2023-04-20T19:21:27.181Z,66.12
2023-04-20T19:23:54.191Z,66.76
2023-04-20T19:26:21.615Z,66.79
2023-04-20T19:28:48.749Z,67.25
2023-04-20T19:31:16.242Z,66.69
2023-04-20T19:33:45.168Z,67.92
2023-04-20T19:36:12.195Z,67.07
2023-04-20T19:38:39.313Z,66.21
2023-04-20T19:41:06.599Z,66.90
2023-04-20T19:43:34.639Z,66.22
2023-04-20T19:46:01.858Z,66.66
2023-04-20T19:48:28.991Z,67.18
2023-04-20T19:50:59.844Z,67.52
2023-04-20T19:53:27.209Z,67.38
2023-04-20T19:55:57.071Z,66.83
2023-04-20T19:58:24.490Z,66.83
2023-04-20T20:00:51.610Z,67.92
2023-04-20T20:03:18.903Z,67.55
2023-04-20T20:05:46.196Z,67.47
2023-04-20T20:08:13.790Z,66.92
2023-04-20T20:10:41.668Z,67.08
2023-04-20T20:13:08.835Z,66.33
2023-04-20T20:15:37.706Z,66.53
2023-04-20T20:18:05.083Z,67.54
2023-04-20T20:20:32.630Z,67.46
2023-04-20T20:23:25.415Z,68.07
2023-04-20T20:25:52.526Z,68.37
2023-04-20T20:28:19.533Z,69.34
2023-04-20T20:30:46.632Z,68.10
2023-04-20T20:33:13.649Z,68.76
2023-04-20T20:35:40.967Z,68.30
2023-04-20T20:38:33.099Z,69.10
2023-04-20T20:41:00.144Z,68.88
2023-04-20T20:43:28.717Z,69.26
2023-04-20T20:45:55.763Z,69.56
2023-04-20T20:48:22.963Z,69.46
2023-04-20T20:50:49.896Z,69.72
2023-04-20T20:53:20.478Z,67.97
2023-04-20T20:55:47.613Z,68.97
2023-04-20T20:58:14.688Z,69.39
2023-04-20T21:00:41.931Z,69.83
2023-04-20T21:03:09.106Z,69.85
2023-04-20T21:05:36.127Z,68.96
2023-04-20T21:08:03.406Z,68.82
2023-04-20T21:10:30.439Z,69.98
2023-04-20T21:12:57.482Z,70.22
2023-04-20T21:15:24.508Z,69.54
2023-04-20T21:17:51.473Z,69.02
2023-04-20T21:20:18.492Z,68.90
2023-04-20T21:22:45.499Z,68.89
2023-04-20T21:25:12.600Z,67.27
2023-04-20T21:27:39.600Z,68.19
2023-04-20T21:30:13.853Z,67.93
2023-04-20T21:32:40.878Z,68.30
2023-04-20T21:35:08.373Z,68.09
2023-04-20T21:37:35.345Z,68.38
2023-04-20T21:40:02.397Z,69.07
2023-04-20T21:42:29.877Z,69.38
2023-04-20T21:44:56.909Z,68.72
2023-04-20T21:47:23.901Z,69.25
2023-04-20T21:49:50.878Z,69.27
2023-04-20T21:52:18.066Z,68.72
2023-04-20T21:54:45.191Z,69.01
2023-04-20T21:57:12.450Z,69.27
2023-04-20T21:59:39.537Z,68.88
2023-04-20T22:02:06.830Z,68.80
2023-04-20T22:04:34.193Z,68.97
2023-04-20T22:07:01.320Z,69.58
2023-04-20T22:09:28.409Z,68.96
2023-04-20T22:11:55.968Z,69.44
2023-04-20T22:14:22.979Z,69.63
2023-04-20T22:16:49.990Z,69.55
2023-04-20T22:19:17.695Z,69.64
2023-04-20T22:21:44.853Z,70.59
2023-04-20T22:24:11.847Z,70.97
2023-04-20T22:26:38.870Z,72.02
2023-04-20T22:29:05.929Z,69.57
2023-04-20T22:31:33.023Z,69.49
2023-04-20T22:34:00.102Z,69.90
2023-04-20T22:36:28.190Z,69.68
2023-04-20T22:38:55.363Z,69.89
2023-04-20T22:41:22.452Z,70.28
2023-04-20T22:43:49.541Z,69.50
2023-04-20T22:46:22.472Z,69.59
2023-04-20T22:48:49.595Z,69.96
2023-04-20T22:51:17.424Z,70.57
2023-04-20T22:53:44.795Z,70.40
2023-04-20T22:56:11.847Z,69.88
2023-04-20T22:58:38.962Z,70.55
2023-04-20T23:01:06.195Z,70.01
2023-04-20T23:03:33.402Z,69.51
2023-04-20T23:06:00.497Z,69.16
2023-04-20T23:08:28.431Z,69.25
2023-04-20T23:10:55.677Z,68.67
2023-04-20T23:13:24.789Z,68.94
2023-04-20T23:15:52.323Z,69.53
2023-04-20T23:18:19.469Z,69.68
2023-04-20T23:20:46.652Z,69.67
2023-04-20T23:23:13.782Z,68.87
2023-04-20T23:25:40.874Z,69.45
2023-04-20T23:28:08.068Z,69.39
2023-04-20T23:30:35.313Z,69.42
2023-04-20T23:33:02.294Z,69.42
2023-04-20T23:35:29.478Z,69.55
2023-04-20T23:37:58.197Z,69.79
2023-04-20T23:40:26.441Z,69.91
2023-04-20T23:42:55.211Z,70.27
2023-04-20T23:45:23.284Z,70.37
2023-04-20T23:47:50.626Z,70.44
2023-04-20T23:50:18.053Z,70.60
2023-04-20T23:52:45.065Z,70.44
2023-04-20T23:55:12.157Z,70.05
2023-04-20T23:57:39.416Z,69.40
